Time;durP1;ratioP1;P1;durP2;ratioP2;P2;SDS_P1;SDS_P2;PMS_P1;PMS_P2;Temp;Humidity;BMP_temperature;BMP_pressure;BME280_temperature;BME280_humidity;BME280_pressure;Samples;Min_cycle;Max_cycle;Signal;HPM_P1;HPM_P2
2023/12/13 00:00:21;;;;;;;2.30;1.65;;;9.70;92.80;;;;;;2542283;28;20041;-83
2023/12/13 00:01:35;;;;;;;1.38;1.08;;;9.70;92.70;;;;;;2562402;22;20143;-79
2023/12/13 00:02:50;;;;;;;2.63;1.30;;;9.70;92.70;;;;;;2553041;28;20484;-79
2023/12/13 00:04:04;;;;;;;2.78;0.85;;;9.70;92.70;;;;;;2562490;28;20048;-79
2023/12/13 00:05:18;;;;;;;2.92;1.85;;;9.60;92.60;;;;;;2562918;28;20052;-79
2023/12/13 00:06:34;;;;;;;3.38;1.13;;;9.60;92.70;;;;;;2562176;28;20115;-80
2023/12/13 00:07:49;;;;;;;5.07;1.20;;;9.60;92.70;;;;;;2563345;28;20051;-81
2023/12/13 00:09:03;;;;;;;5.68;1.20;;;9.60;92.80;;;;;;2563860;28;20412;-80
2023/12/13 00:10:17;;;;;;;1.63;1.10;;;9.60;92.80;;;;;;2564161;28;20043;-80
2023/12/13 00:11:31;;;;;;;4.22;1.13;;;9.60;92.80;;;;;;2555506;28;20044;-80
2023/12/13 00:12:46;;;;;;;3.13;2.38;;;9.60;92.90;;;;;;2553234;28;20119;-80
2023/12/13 00:14:00;;;;;;;2.83;1.35;;;9.70;92.90;;;;;;2553564;28;20075;-80
2023/12/13 00:15:14;;;;;;;2.65;1.08;;;9.70;92.90;;;;;;2553046;28;20041;-79
2023/12/13 00:16:28;;;;;;;4.43;2.33;;;9.70;92.80;;;;;;2553996;28;20045;-81
2023/12/13 00:17:43;;;;;;;6.72;2.67;;;9.70;92.80;;;;;;2552888;28;20049;-81
2023/12/13 00:18:57;;;;;;;3.30;1.35;;;9.70;92.80;;;;;;2552713;28;20065;-81
2023/12/13 00:20:11;;;;;;;4.70;0.93;;;9.80;92.80;;;;;;2553821;28;20044;-81
2023/12/13 00:21:25;;;;;;;1.30;1.00;;;9.80;92.70;;;;;;2553676;28;20040;-80
2023/12/13 00:22:41;;;;;;;3.90;1.00;;;9.80;92.70;;;;;;2553525;28;20050;-82
2023/12/13 00:23:56;;;;;;;4.70;1.13;;;9.80;92.60;;;;;;2553364;28;20063;-80
2023/12/13 00:25:10;;;;;;;1.52;1.02;;;9.80;92.60;;;;;;2553519;28;20555;-80
2023/12/13 00:26:24;;;;;;;2.45;1.05;;;9.90;92.50;;;;;;2553897;28;20105;-80
2023/12/13 00:27:39;;;;;;;4.97;1.40;;;9.90;92.50;;;;;;2554066;28;20451;-80
2023/12/13 00:28:53;;;;;;;2.58;1.05;;;9.90;92.40;;;;;;2546059;28;20052;-80
2023/12/13 00:30:09;;;;;;;4.13;1.60;;;9.90;92.40;;;;;;2555031;28;20104;-81
2023/12/13 00:31:23;;;;;;;2.90;1.85;;;9.90;92.40;;;;;;2554469;28;20068;-80
2023/12/13 00:32:37;;;;;;;5.97;1.33;;;9.90;92.30;;;;;;2555603;28;20076;-81
2023/12/13 00:33:51;;;;;;;2.20;1.00;;;9.90;92.30;;;;;;2555328;28;20051;-81
2023/12/13 00:35:07;;;;;;;2.70;1.02;;;9.90;92.20;;;;;;2554665;28;20048;-80
2023/12/13 00:36:21;;;;;;;3.88;0.85;;;9.90;92.20;;;;;;2555129;28;20636;-80
2023/12/13 00:37:35;;;;;;;1.95;0.77;;;9.90;92.20;;;;;;2557229;28;20067;-81
2023/12/13 00:38:50;;;;;;;3.78;0.68;;;9.90;92.20;;;;;;2564519;28;20051;-80
2023/12/13 00:40:07;;;;;;;3.35;0.90;;;9.90;92.30;;;;;;2556511;28;20040;-80
2023/12/13 00:41:22;;;;;;;3.53;1.83;;;9.90;92.30;;;;;;2557952;28;20123;-81
2023/12/13 00:42:37;;;;;;;2.30;1.00;;;9.90;92.20;;;;;;2553369;28;20068;-80
2023/12/13 00:43:50;;;;;;;3.13;1.20;;;9.90;92.10;;;;;;2552666;28;20052;-81
2023/12/13 00:45:06;;;;;;;2.38;1.25;;;9.90;92.40;;;;;;2553470;28;20074;-80
2023/12/13 00:46:22;;;;;;;6.30;1.30;;;9.90;92.00;;;;;;2553996;28;20504;-80
2023/12/13 00:47:37;;;;;;;3.88;1.70;;;9.90;92.00;;;;;;2560018;28;20048;-80
2023/12/13 00:48:51;;;;;;;4.00;1.13;;;9.90;92.00;;;;;;2553754;28;20548;-81
2023/12/13 00:50:07;;;;;;;7.22;1.80;;;9.90;92.00;;;;;;2553204;28;20051;-80
2023/12/13 00:51:22;;;;;;;5.35;1.02;;;10.00;92.10;;;;;;2553341;28;20048;-81
2023/12/13 00:52:37;;;;;;;2.35;0.65;;;10.00;92.10;;;;;;2554919;28;20059;-81
2023/12/13 00:53:52;;;;;;;3.13;0.93;;;10.00;92.00;;;;;;2555665;28;20044;-81
2023/12/13 00:55:07;;;;;;;10.18;3.70;;;10.00;92.00;;;;;;2558301;28;20043;-81
2023/12/13 00:56:21;;;;;;;3.33;1.58;;;10.00;92.00;;;;;;2555541;28;20045;-81
2023/12/13 00:57:36;;;;;;;3.67;2.35;;;10.10;92.00;;;;;;2555649;28;20425;-81
2023/12/13 00:58:50;;;;;;;17.77;3.72;;;10.10;91.90;;;;;;2555811;28;20090;-81
2023/12/13 01:00:06;;;;;;;5.40;1.42;;;10.10;91.90;;;;;;2554972;28;20059;-80
2023/12/13 01:01:20;;;;;;;4.80;1.25;;;10.10;91.90;;;;;;2555276;28;20398;-81
2023/12/13 01:02:34;;;;;;;1.55;1.00;;;10.10;91.80;;;;;;2555480;28;20098;-81
2023/12/13 01:03:48;;;;;;;2.28;2.00;;;10.10;91.80;;;;;;2554763;28;20094;-81
2023/12/13 01:05:03;;;;;;;4.25;3.30;;;10.10;91.80;;;;;;2550146;28;20497;-80
2023/12/13 01:06:17;;;;;;;2.90;2.53;;;10.20;91.80;;;;;;2555441;28;20477;-81
2023/12/13 01:07:31;;;;;;;3.03;1.23;;;10.20;91.80;;;;;;2554302;28;20086;-81
2023/12/13 01:08:45;;;;;;;6.57;1.70;;;10.20;91.70;;;;;;2554778;28;20056;-81
2023/12/13 01:10:01;;;;;;;2.17;1.17;;;10.20;91.70;;;;;;2557162;28;20052;-82
2023/12/13 01:11:15;;;;;;;2.75;0.90;;;10.10;91.70;;;;;;2560021;28;20052;-81
2023/12/13 01:12:30;;;;;;;3.70;1.05;;;10.10;91.70;;;;;;2555271;28;20070;-81
2023/12/13 01:13:45;;;;;;;4.50;1.20;;;10.10;91.70;;;;;;2555284;28;20055;-81
2023/12/13 01:15:00;;;;;;;2.50;1.50;;;10.10;91.70;;;;;;2554648;28;20041;-81
2023/12/13 01:16:14;;;;;;;2.97;1.17;;;10.10;91.70;;;;;;2555495;28;20044;-81
2023/12/13 01:17:29;;;;;;;2.42;1.10;;;10.10;91.70;;;;;;2555846;28;20074;-81
2023/12/13 01:18:43;;;;;;;7.20;1.67;;;10.10;91.70;;;;;;2557076;28;20072;-81
2023/12/13 01:19:57;;;;;;;2.85;1.13;;;10.10;91.70;;;;;;2556669;28;20036;-81
2023/12/13 01:21:11;;;;;;;4.10;1.40;;;10.10;91.70;;;;;;2561126;28;20039;-81
2023/12/13 01:22:25;;;;;;;3.67;1.55;;;10.10;91.70;;;;;;2561361;28;20040;-81
2023/12/13 01:23:39;;;;;;;5.50;1.77;;;10.10;91.80;;;;;;2556317;28;20040;-81
2023/12/13 01:24:54;;;;;;;3.95;1.25;;;10.10;91.80;;;;;;2556682;28;20048;-81
2023/12/13 01:26:09;;;;;;;4.45;1.02;;;10.10;91.80;;;;;;2556970;28;20255;-81
2023/12/13 01:27:23;;;;;;;1.98;1.13;;;10.10;91.80;;;;;;2556503;28;20044;-82
2023/12/13 01:28:37;;;;;;;4.63;1.40;;;10.10;91.80;;;;;;2557304;28;20044;-81
2023/12/13 01:29:52;;;;;;;4.28;1.23;;;10.10;91.80;;;;;;2558051;28;20531;-81
2023/12/13 01:31:07;;;;;;;3.42;1.67;;;10.10;91.80;;;;;;2563338;28;20045;-81
2023/12/13 01:32:22;;;;;;;2.15;1.13;;;10.10;91.80;;;;;;2556817;28;20041;-81
2023/12/13 01:33:35;;;;;;;2.10;1.45;;;10.10;91.70;;;;;;2556585;28;20416;-81
2023/12/13 01:34:50;;;;;;;4.80;1.20;;;10.10;91.70;;;;;;2556157;28;20045;-81
2023/12/13 01:36:04;;;;;;;3.15;0.80;;;10.10;91.70;;;;;;2556100;28;20048;-81
2023/12/13 01:37:19;;;;;;;4.35;1.30;;;10.10;91.70;;;;;;2556801;28;20133;-81
2023/12/13 01:38:33;;;;;;;5.60;1.23;;;10.10;91.80;;;;;;2556851;28;20052;-81
2023/12/13 01:39:47;;;;;;;5.38;1.23;;;10.10;91.80;;;;;;2556419;28;20045;-81
2023/12/13 01:41:02;;;;;;;3.03;1.48;;;10.00;91.80;;;;;;2556816;28;20049;-81
2023/12/13 01:42:18;;;;;;;2.88;0.98;;;10.00;91.80;;;;;;2556689;28;20090;-81
2023/12/13 01:43:32;;;;;;;6.50;1.52;;;10.00;91.70;;;;;;2554564;28;20045;-80
2023/12/13 01:44:46;;;;;;;1.52;1.30;;;10.00;91.80;;;;;;2554913;28;20044;-80
2023/12/13 01:46:00;;;;;;;1.40;1.05;;;9.90;91.80;;;;;;2554792;28;20675;-81
2023/12/13 01:47:15;;;;;;;3.28;1.88;;;9.90;91.80;;;;;;2558513;28;20122;-81
2023/12/13 01:48:29;;;;;;;1.30;1.17;;;9.90;91.80;;;;;;2559399;28;20041;-80
2023/12/13 01:49:45;;;;;;;2.63;1.30;;;9.80;91.80;;;;;;2564027;28;20073;-80
2023/12/13 01:50:59;;;;;;;2.50;2.30;;;9.80;91.90;;;;;;2547310;28;20071;-81
2023/12/13 01:52:16;;;;;;;2.05;1.30;;;9.80;92.00;;;;;;2555246;28;20474;-80
2023/12/13 01:53:32;;;;;;;2.67;1.05;;;9.80;92.00;;;;;;2557657;28;20045;-81
2023/12/13 01:54:48;;;;;;;3.42;2.63;;;9.70;92.40;;;;;;2556998;28;20128;-81
2023/12/13 01:56:04;;;;;;;3.92;1.17;;;9.70;92.10;;;;;;2555999;28;20505;-81
2023/12/13 01:57:20;;;;;;;6.07;0.90;;;9.70;92.20;;;;;;2556652;28;20072;-81
2023/12/13 01:58:36;;;;;;;2.00;1.73;;;9.70;92.20;;;;;;2556124;28;20390;-81
2023/12/13 01:59:51;;;;;;;3.13;1.15;;;9.70;92.30;;;;;;2555141;28;20041;-81
2023/12/13 02:01:06;;;;;;;3.25;1.05;;;9.70;92.30;;;;;;2554965;28;20052;-81
2023/12/13 02:02:22;;;;;;;2.05;1.58;;;9.70;92.40;;;;;;2560753;28;20039;-81
2023/12/13 02:03:37;;;;;;;1.67;0.90;;;9.70;92.40;;;;;;2558888;28;20051;-82
2023/12/13 02:04:53;;;;;;;3.10;1.00;;;9.70;92.30;;;;;;2564381;28;20424;-81
2023/12/13 02:06:07;;;;;;;1.77;0.93;;;9.70;92.30;;;;;;2559250;28;20094;-81
2023/12/13 02:07:23;;;;;;;3.33;0.80;;;9.70;92.30;;;;;;2561042;28;20040;-81
2023/12/13 02:08:37;;;;;;;3.50;0.88;;;9.70;92.30;;;;;;2563403;28;20044;-81
2023/12/13 02:09:52;;;;;;;0.63;0.60;;;9.70;92.30;;;;;;2556695;28;20064;-81
2023/12/13 02:11:06;;;;;;;1.48;0.77;;;9.70;92.30;;;;;;2556212;28;20049;-82
2023/12/13 02:12:22;;;;;;;1.85;0.77;;;9.70;92.30;;;;;;2556135;28;20075;-81
2023/12/13 02:13:36;;;;;;;2.63;1.20;;;9.60;92.20;;;;;;2555684;28;20053;-81
2023/12/13 02:14:51;;;;;;;1.58;0.80;;;9.60;92.20;;;;;;2555650;28;20044;-81
2023/12/13 02:16:06;;;;;;;2.78;0.75;;;9.60;92.20;;;;;;2555340;28;20044;-81
2023/12/13 02:17:20;;;;;;;4.20;0.75;;;9.60;92.20;;;;;;2559845;28;20040;-81
2023/12/13 02:18:34;;;;;;;1.95;0.55;;;9.60;92.20;;;;;;2558313;28;20055;-81
2023/12/13 02:19:49;;;;;;;1.48;0.93;;;9.60;92.20;;;;;;2554351;28;20044;-81
2023/12/13 02:21:03;;;;;;;1.10;0.98;;;9.60;92.20;;;;;;2554187;28;20053;-81
2023/12/13 02:22:19;;;;;;;0.90;0.65;;;9.60;92.20;;;;;;2554026;28;20037;-80
2023/12/13 02:23:32;;;;;;;0.65;0.50;;;9.60;92.20;;;;;;2553900;28;20044;-80
2023/12/13 02:24:50;;;;;;;1.00;0.70;;;9.60;92.20;;;;;;2554140;28;20051;-81
2023/12/13 02:26:05;;;;;;;2.08;0.77;;;9.60;92.10;;;;;;2554306;28;20056;-80
2023/12/13 02:27:21;;;;;;;1.30;0.30;;;9.60;92.10;;;;;;2553632;28;20556;-80
2023/12/13 02:28:35;;;;;;;2.10;1.50;;;9.60;92.10;;;;;;2554514;28;20063;-80
2023/12/13 02:29:50;;;;;;;2.58;0.57;;;9.60;92.10;;;;;;2553809;28;20727;-80
2023/12/13 02:31:04;;;;;;;0.98;0.63;;;9.60;92.10;;;;;;2554099;28;20052;-81
2023/12/13 02:32:19;;;;;;;0.75;0.60;;;9.60;92.00;;;;;;2558901;28;20119;-81
2023/12/13 02:33:32;;;;;;;6.35;1.58;;;9.60;92.00;;;;;;2558552;28;20059;-81
2023/12/13 02:34:47;;;;;;;1.50;0.50;;;9.50;92.00;;;;;;2527500;28;20048;-81
2023/12/13 02:36:03;;;;;;;3.90;0.63;;;9.50;91.90;;;;;;2553328;28;20052;-80
2023/12/13 02:37:19;;;;;;;1.23;0.68;;;9.50;91.90;;;;;;2554217;28;20502;-80
2023/12/13 02:38:32;;;;;;;1.58;1.42;;;9.50;91.90;;;;;;2554957;28;20108;-80
2023/12/13 02:39:48;;;;;;;2.38;0.90;;;9.50;92.00;;;;;;2553660;28;20463;-80
2023/12/13 02:41:01;;;;;;;2.40;0.80;;;9.50;92.00;;;;;;2555188;28;20052;-81
2023/12/13 02:42:16;;;;;;;1.95;0.60;;;9.50;92.00;;;;;;2559473;28;20040;-81
2023/12/13 02:43:30;;;;;;;4.00;0.93;;;9.50;92.00;;;;;;2558604;28;20037;-80
2023/12/13 02:44:45;;;;;;;0.63;0.63;;;9.50;92.00;;;;;;2555061;28;20044;-80
2023/12/13 02:45:59;;;;;;;2.58;0.80;;;9.50;92.00;;;;;;2555726;28;20049;-80
2023/12/13 02:47:14;;;;;;;3.47;1.60;;;9.50;92.00;;;;;;2555586;28;20048;-81
2023/12/13 02:48:27;;;;;;;1.90;0.77;;;9.50;92.00;;;;;;2555860;28;20048;-80
2023/12/13 02:49:42;;;;;;;7.28;1.10;;;9.40;92.00;;;;;;2556168;28;20051;-81
2023/12/13 02:50:56;;;;;;;1.45;0.90;;;9.50;92.00;;;;;;2555448;28;20135;-81
2023/12/13 02:52:10;;;;;;;1.42;0.73;;;9.40;92.00;;;;;;2556688;28;20036;-81
2023/12/13 02:53:26;;;;;;;2.42;0.80;;;9.40;92.10;;;;;;2556977;28;20055;-81
2023/12/13 02:54:40;;;;;;;2.35;0.68;;;9.40;92.10;;;;;;2556662;28;20504;-80
2023/12/13 02:55:54;;;;;;;1.55;1.05;;;9.40;92.10;;;;;;2555797;28;20044;-80
2023/12/13 02:57:09;;;;;;;3.58;0.80;;;9.40;92.10;;;;;;2556173;28;20044;-80
2023/12/13 02:58:22;;;;;;;3.25;0.73;;;9.40;92.10;;;;;;2555538;28;20040;-81
2023/12/13 02:59:37;;;;;;;2.38;1.10;;;9.40;92.10;;;;;;2554510;28;20044;-82
2023/12/13 03:00:51;;;;;;;2.42;0.88;;;9.40;92.10;;;;;;2556036;28;20048;-80
2023/12/13 03:02:05;;;;;;;2.58;2.08;;;9.40;92.20;;;;;;2565391;28;20044;-80
2023/12/13 03:03:19;;;;;;;0.95;0.68;;;9.40;92.10;;;;;;2560240;28;20147;-80
2023/12/13 03:04:34;;;;;;;4.60;0.93;;;9.40;92.20;;;;;;2556066;28;20524;-81
2023/12/13 03:05:47;;;;;;;2.67;1.05;;;9.40;92.50;;;;;;2555312;28;20429;-81
2023/12/13 03:07:04;;;;;;;3.60;0.90;;;9.40;92.20;;;;;;2554332;28;20048;-80
2023/12/13 03:08:18;;;;;;;3.17;0.85;;;9.40;92.20;;;;;;2555992;28;20051;-80
2023/12/13 03:09:34;;;;;;;3.88;0.85;;;9.40;92.30;;;;;;2554554;28;20044;-81
2023/12/13 03:10:47;;;;;;;0.88;0.68;;;9.40;92.30;;;;;;2554658;28;20044;-81
2023/12/13 03:12:02;;;;;;;1.63;0.75;;;9.40;92.30;;;;;;2547050;28;20048;-81
2023/12/13 03:13:16;;;;;;;1.73;1.05;;;9.40;92.30;;;;;;2555924;28;20052;-80
2023/12/13 03:14:31;;;;;;;2.65;1.20;;;9.40;92.30;;;;;;2555560;28;20062;-81
2023/12/13 03:15:44;;;;;;;6.50;1.00;;;9.40;92.30;;;;;;2555169;28;20101;-81
2023/12/13 03:16:59;;;;;;;2.10;0.63;;;9.40;92.30;;;;;;2555548;28;20102;-81
2023/12/13 03:18:13;;;;;;;2.90;0.70;;;9.40;92.40;;;;;;2554786;28;20064;-81
2023/12/13 03:19:27;;;;;;;1.83;1.20;;;9.40;92.40;;;;;;2553530;28;20052;-80
2023/12/13 03:20:41;;;;;;;0.95;0.63;;;9.40;92.40;;;;;;2554754;28;20048;-81
2023/12/13 03:21:57;;;;;;;1.73;0.90;;;9.40;92.40;;;;;;2555617;28;20046;-80
2023/12/13 03:23:10;;;;;;;1.38;0.60;;;9.40;92.40;;;;;;2554802;28;20040;-80
2023/12/13 03:24:25;;;;;;;4.70;0.80;;;9.50;92.50;;;;;;2555258;28;20040;-81
2023/12/13 03:25:40;;;;;;;2.38;0.55;;;9.50;92.40;;;;;;2555985;28;20060;-81
2023/12/13 03:26:55;;;;;;;2.75;0.73;;;9.50;92.40;;;;;;2555184;28;20048;-81
2023/12/13 03:28:08;;;;;;;2.17;0.70;;;9.50;92.40;;;;;;2555443;28;20056;-80
2023/12/13 03:29:23;;;;;;;3.03;0.93;;;9.60;92.40;;;;;;2554706;28;20036;-80
2023/12/13 03:30:37;;;;;;;3.35;0.60;;;9.60;92.30;;;;;;2554191;28;20436;-80
2023/12/13 03:31:52;;;;;;;2.30;0.70;;;9.60;92.30;;;;;;2553423;28;20041;-80
2023/12/13 03:33:05;;;;;;;1.27;1.05;;;9.60;92.20;;;;;;2553727;28;20045;-80
2023/12/13 03:34:20;;;;;;;2.50;1.02;;;9.60;92.30;;;;;;2553883;28;20051;-80
2023/12/13 03:35:34;;;;;;;1.27;0.85;;;9.60;92.30;;;;;;2553049;28;20053;-81
2023/12/13 03:36:49;;;;;;;3.45;0.80;;;9.60;92.30;;;;;;2553627;28;20473;-80
2023/12/13 03:38:04;;;;;;;1.25;0.60;;;9.60;92.30;;;;;;2553474;28;20460;-80
2023/12/13 03:39:19;;;;;;;1.90;0.93;;;9.60;92.20;;;;;;2553159;28;20498;-80
2023/12/13 03:40:33;;;;;;;3.90;1.13;;;9.60;92.10;;;;;;2553848;28;20052;-80
2023/12/13 03:41:48;;;;;;;1.45;0.60;;;9.60;92.10;;;;;;2553158;28;20053;-80
2023/12/13 03:43:03;;;;;;;1.00;0.63;;;9.60;92.00;;;;;;2561604;28;20044;-79
2023/12/13 03:44:16;;;;;;;3.20;0.80;;;9.60;92.00;;;;;;2553536;28;20041;-80
2023/12/13 03:45:31;;;;;;;2.33;0.88;;;9.50;92.00;;;;;;2553639;28;20404;-80
2023/12/13 03:46:45;;;;;;;1.85;0.75;;;9.50;92.00;;;;;;2553861;28;20044;-80
2023/12/13 03:48:00;;;;;;;6.45;1.80;;;9.50;92.00;;;;;;2553009;28;20044;-80
2023/12/13 03:49:16;;;;;;;6.40;1.45;;;9.50;92.00;;;;;;2554454;28;20041;-81
2023/12/13 03:50:30;;;;;;;4.38;0.73;;;9.50;92.00;;;;;;2554013;28;20509;-80
2023/12/13 03:51:46;;;;;;;6.85;0.70;;;9.40;92.00;;;;;;2552793;28;20044;-80
2023/12/13 03:53:00;;;;;;;5.63;1.23;;;9.40;92.10;;;;;;2554938;28;20501;-80
2023/12/13 03:54:15;;;;;;;2.28;0.77;;;9.40;92.10;;;;;;2556262;28;20048;-80
2023/12/13 03:55:29;;;;;;;2.55;0.55;;;9.40;92.20;;;;;;2554283;28;20047;-80
2023/12/13 03:56:43;;;;;;;3.67;1.00;;;9.40;92.60;;;;;;2553897;28;20045;-80
2023/12/13 03:57:59;;;;;;;3.55;0.85;;;9.40;92.30;;;;;;2553721;28;20190;-79
2023/12/13 03:59:13;;;;;;;1.55;0.80;;;9.40;92.30;;;;;;2553367;28;20087;-81
2023/12/13 04:00:27;;;;;;;2.50;0.75;;;9.40;92.20;;;;;;2553242;28;20040;-80
2023/12/13 04:01:41;;;;;;;3.83;0.98;;;9.40;92.20;;;;;;2553956;28;20051;-80
2023/12/13 04:02:56;;;;;;;6.10;0.80;;;9.40;92.20;;;;;;2555060;28;20040;-80
2023/12/13 04:04:09;;;;;;;1.92;1.83;;;9.40;92.30;;;;;;2561339;28;20044;-80
2023/12/13 04:05:24;;;;;;;1.60;0.90;;;9.40;92.30;;;;;;2554779;28;20104;-80
2023/12/13 04:06:38;;;;;;;1.73;0.65;;;9.40;92.60;;;;;;2557284;28;20049;-81
2023/12/13 04:07:52;;;;;;;3.17;1.05;;;9.40;92.20;;;;;;2552324;28;20040;-80
2023/12/13 04:09:06;;;;;;;5.05;2.30;;;9.40;92.10;;;;;;2554480;28;20064;-82
2023/12/13 04:10:21;;;;;;;2.97;0.60;;;9.40;92.10;;;;;;2557236;28;20056;-80
2023/12/13 04:11:34;;;;;;;2.47;0.73;;;9.30;92.10;;;;;;2562629;28;20066;-80
2023/12/13 04:12:49;;;;;;;2.53;1.05;;;9.30;92.10;;;;;;2563972;28;20055;-81
2023/12/13 04:14:04;;;;;;;5.57;0.88;;;9.30;92.20;;;;;;2555443;28;20056;-81
2023/12/13 04:15:19;;;;;;;1.33;0.70;;;9.30;92.30;;;;;;2552757;28;20048;-79
2023/12/13 04:16:33;;;;;;;4.38;1.00;;;9.30;92.30;;;;;;2553085;28;20052;-80
2023/12/13 04:17:48;;;;;;;1.42;0.98;;;9.30;92.40;;;;;;2554350;28;20495;-81
2023/12/13 04:19:01;;;;;;;3.17;1.05;;;9.30;92.40;;;;;;2554004;28;20048;-81
2023/12/13 04:20:16;;;;;;;5.60;1.33;;;9.30;92.70;;;;;;2554714;28;20112;-81
2023/12/13 04:21:30;;;;;;;3.17;0.93;;;9.30;92.40;;;;;;2554372;28;20052;-80
2023/12/13 04:22:45;;;;;;;3.30;1.00;;;9.30;92.40;;;;;;2554815;28;20036;-80
2023/12/13 04:23:59;;;;;;;5.43;1.30;;;9.30;92.40;;;;;;2554181;28;20102;-81
2023/12/13 04:25:14;;;;;;;0.77;0.52;;;9.30;92.40;;;;;;2554611;28;20063;-80
2023/12/13 04:26:28;;;;;;;0.80;0.80;;;9.30;92.30;;;;;;2555047;28;20048;-80
2023/12/13 04:27:43;;;;;;;4.88;2.45;;;9.30;92.30;;;;;;2560870;28;20044;-80
2023/12/13 04:28:57;;;;;;;2.25;1.10;;;9.30;92.30;;;;;;2555035;28;20056;-81
2023/12/13 04:30:13;;;;;;;3.63;0.77;;;9.30;92.40;;;;;;2553044;28;20127;-79
2023/12/13 04:31:27;;;;;;;1.17;0.80;;;9.30;92.50;;;;;;2552634;28;20040;-80
2023/12/13 04:32:42;;;;;;;3.08;1.17;;;9.30;92.50;;;;;;2552936;28;20485;-81
2023/12/13 04:33:55;;;;;;;3.17;0.80;;;9.30;92.50;;;;;;2552932;28;20044;-80
2023/12/13 04:35:10;;;;;;;1.80;0.68;;;9.30;92.60;;;;;;2552623;28;20055;-81
2023/12/13 04:36:26;;;;;;;6.95;1.15;;;9.30;92.90;;;;;;2553156;28;20052;-80
2023/12/13 04:37:40;;;;;;;3.97;0.80;;;9.30;92.80;;;;;;2559591;28;20052;-80
2023/12/13 04:38:55;;;;;;;3.13;1.40;;;9.30;92.40;;;;;;2554150;28;20135;-81
2023/12/13 04:40:10;;;;;;;1.80;1.00;;;9.30;92.30;;;;;;2555128;28;20045;-80
2023/12/13 04:41:25;;;;;;;4.00;0.80;;;9.30;92.30;;;;;;2558553;28;20044;-80
2023/12/13 04:42:39;;;;;;;5.43;1.30;;;9.30;92.30;;;;;;2552774;28;20056;-80
2023/12/13 04:43:53;;;;;;;1.10;0.85;;;9.30;92.30;;;;;;2552377;28;20045;-80
2023/12/13 04:45:08;;;;;;;3.30;1.10;;;9.20;92.30;;;;;;2544624;28;20048;-81
2023/12/13 04:46:25;;;;;;;3.25;1.30;;;9.20;92.40;;;;;;2553346;28;20040;-80
2023/12/13 04:47:38;;;;;;;11.98;3.67;;;9.20;92.40;;;;;;2558969;28;20048;-80
2023/12/13 04:48:53;;;;;;;2.50;1.10;;;9.20;92.40;;;;;;2563287;28;20047;-80
2023/12/13 04:50:08;;;;;;;2.80;1.13;;;9.20;92.40;;;;;;2561107;28;20417;-80
2023/12/13 04:51:23;;;;;;;6.80;2.85;;;9.20;92.40;;;;;;2552278;28;20036;-80
2023/12/13 04:52:36;;;;;;;2.90;1.30;;;9.20;92.30;;;;;;2552416;28;20053;-80
2023/12/13 04:53:52;;;;;;;2.42;0.98;;;9.20;92.40;;;;;;2554127;28;20044;-80
2023/12/13 04:55:06;;;;;;;4.63;1.52;;;9.20;92.40;;;;;;2552889;28;20490;-80
2023/12/13 04:56:20;;;;;;;1.75;0.90;;;9.20;92.40;;;;;;2553608;28;20047;-80
2023/12/13 04:57:34;;;;;;;4.75;1.20;;;9.20;92.50;;;;;;2553731;28;20052;-81
2023/12/13 04:58:49;;;;;;;2.25;1.00;;;9.20;92.50;;;;;;2553339;28;20051;-81
2023/12/13 05:00:06;;;;;;;1.90;1.00;;;9.20;92.40;;;;;;2552944;28;20047;-81
2023/12/13 05:01:20;;;;;;;1.83;1.17;;;9.20;92.40;;;;;;2553742;28;20048;-81
2023/12/13 05:02:35;;;;;;;2.67;0.93;;;9.20;92.40;;;;;;2555268;28;20075;-80
2023/12/13 05:03:50;;;;;;;2.17;1.83;;;9.20;92.40;;;;;;2552353;28;20052;-79
2023/12/13 05:05:04;;;;;;;8.63;1.05;;;9.20;92.40;;;;;;2552809;28;20071;-80
2023/12/13 05:06:19;;;;;;;1.90;1.27;;;9.20;92.40;;;;;;2553572;28;20036;-81
2023/12/13 05:07:33;;;;;;;2.15;1.13;;;9.20;92.40;;;;;;2553227;28;20097;-80
2023/12/13 05:08:48;;;;;;;4.13;1.55;;;9.20;92.40;;;;;;2553570;28;20462;-80
2023/12/13 05:10:02;;;;;;;5.35;1.25;;;9.20;92.50;;;;;;2553034;28;20048;-81
2023/12/13 05:11:16;;;;;;;1.73;1.38;;;9.20;92.50;;;;;;2552518;28;20051;-81
2023/12/13 05:12:30;;;;;;;2.28;1.77;;;9.20;92.50;;;;;;2554449;28;20049;-81
2023/12/13 05:13:45;;;;;;;3.72;1.48;;;9.20;92.50;;;;;;2560441;28;20056;-81
2023/12/13 05:14:59;;;;;;;4.88;1.30;;;9.20;92.50;;;;;;2554322;28;20076;-80
2023/12/13 05:16:13;;;;;;;2.92;1.02;;;9.20;92.50;;;;;;2554947;28;20056;-80
2023/12/13 05:17:27;;;;;;;2.42;1.00;;;9.10;92.50;;;;;;2560232;28;20044;-80
2023/12/13 05:18:43;;;;;;;1.45;1.10;;;9.10;92.60;;;;;;2558814;28;20596;-80
2023/12/13 05:19:58;;;;;;;3.75;1.48;;;9.20;92.60;;;;;;2554536;28;20041;-80
2023/12/13 05:21:13;;;;;;;5.25;1.27;;;9.10;92.50;;;;;;2555505;28;20056;-80
2023/12/13 05:22:27;;;;;;;4.45;1.38;;;9.20;92.60;;;;;;2555189;28;20049;-81
2023/12/13 05:23:41;;;;;;;1.50;1.40;;;9.20;92.50;;;;;;2554601;28;20040;-81
2023/12/13 05:24:55;;;;;;;5.72;2.58;;;9.20;92.50;;;;;;2556092;28;20425;-81
2023/12/13 05:26:09;;;;;;;3.88;2.58;;;9.20;92.50;;;;;;2556031;28;20053;-80
2023/12/13 05:27:23;;;;;;;2.92;1.20;;;9.20;92.50;;;;;;2555410;28;20045;-80
2023/12/13 05:28:38;;;;;;;3.15;1.50;;;9.20;92.40;;;;;;2555555;28;20044;-80
2023/12/13 05:29:52;;;;;;;2.55;1.45;;;9.20;92.40;;;;;;2555767;28;20070;-80
2023/12/13 05:31:06;;;;;;;2.42;1.25;;;9.10;92.40;;;;;;2557042;28;20045;-81
2023/12/13 05:32:20;;;;;;;5.07;1.45;;;9.10;92.40;;;;;;2562506;28;20040;-80
2023/12/13 05:33:35;;;;;;;8.43;1.38;;;9.10;92.40;;;;;;2555606;28;20051;-81
2023/12/13 05:34:50;;;;;;;1.52;1.05;;;9.10;92.40;;;;;;2555728;28;20059;-81
2023/12/13 05:36:06;;;;;;;2.63;1.25;;;9.10;92.30;;;;;;2555256;28;20109;-80
2023/12/13 05:37:19;;;;;;;5.05;1.92;;;9.10;92.30;;;;;;2555756;28;20048;-81
2023/12/13 05:38:34;;;;;;;1.50;1.08;;;9.10;92.30;;;;;;2560626;28;20151;-81
2023/12/13 05:39:48;;;;;;;1.83;1.17;;;9.10;92.20;;;;;;2557872;28;20037;-80
2023/12/13 05:41:02;;;;;;;3.05;1.45;;;9.00;92.10;;;;;;2555071;28;20092;-80
2023/12/13 05:42:18;;;;;;;4.05;0.77;;;9.00;92.00;;;;;;2555486;28;20052;-81
2023/12/13 05:43:34;;;;;;;1.98;1.88;;;9.00;92.00;;;;;;2554734;28;20382;-81
2023/12/13 05:44:47;;;;;;;6.85;2.92;;;8.90;92.00;;;;;;2556306;28;20077;-80
2023/12/13 05:46:02;;;;;;;3.92;1.25;;;8.90;92.00;;;;;;2555155;28;20071;-80
2023/12/13 05:47:16;;;;;;;7.35;2.85;;;8.90;92.00;;;;;;2554072;28;20413;-80
2023/12/13 05:48:31;;;;;;;10.70;1.33;;;8.80;91.90;;;;;;2554631;28;20115;-80
2023/12/13 05:49:45;;;;;;;1.75;1.10;;;8.80;92.00;;;;;;2555547;28;20048;-81
2023/12/13 05:51:01;;;;;;;2.70;1.33;;;8.70;92.10;;;;;;2554447;28;20420;-81
2023/12/13 05:52:15;;;;;;;4.90;1.60;;;8.70;92.20;;;;;;2556102;28;20049;-81
2023/12/13 05:53:31;;;;;;;1.98;1.02;;;8.70;92.30;;;;;;2555153;28;20051;-80
2023/12/13 05:54:45;;;;;;;4.00;2.08;;;8.70;92.40;;;;;;2556194;28;20052;-80
2023/12/13 05:56:00;;;;;;;2.92;1.25;;;8.70;92.50;;;;;;2555528;28;20051;-81
2023/12/13 05:57:13;;;;;;;5.55;1.33;;;8.70;92.70;;;;;;2555833;28;20048;-80
2023/12/13 05:58:29;;;;;;;2.78;1.58;;;8.80;92.80;;;;;;2557177;28;20452;-80
2023/12/13 05:59:43;;;;;;;1.40;1.17;;;8.80;92.80;;;;;;2555881;28;20048;-81
2023/12/13 06:00:58;;;;;;;2.35;0.90;;;8.80;92.80;;;;;;2564930;28;20108;-81
2023/12/13 06:02:12;;;;;;;3.30;1.63;;;8.80;92.70;;;;;;2548794;28;20114;-81
2023/12/13 06:03:27;;;;;;;1.77;1.30;;;8.90;92.70;;;;;;2555789;28;20045;-81
2023/12/13 06:04:41;;;;;;;3.78;1.35;;;8.90;92.80;;;;;;2557094;28;20044;-81
2023/12/13 06:05:56;;;;;;;1.88;1.10;;;8.90;92.80;;;;;;2558813;28;20044;-80
2023/12/13 06:07:11;;;;;;;4.07;1.27;;;8.90;93.10;;;;;;2556734;28;20139;-80
2023/12/13 06:08:26;;;;;;;7.20;1.85;;;8.90;92.90;;;;;;2556988;28;20049;-80
2023/12/13 06:09:41;;;;;;;3.15;1.35;;;9.00;92.90;;;;;;2557241;28;20093;-81
2023/12/13 06:10:58;;;;;;;3.35;1.20;;;9.00;92.90;;;;;;2556319;28;20048;-80
2023/12/13 06:12:13;;;;;;;5.75;0.98;;;9.00;92.90;;;;;;2557308;28;20048;-81
2023/12/13 06:13:27;;;;;;;1.58;1.33;;;9.00;92.90;;;;;;2556778;28;20040;-81
2023/12/13 06:14:41;;;;;;;2.65;1.08;;;9.00;93.00;;;;;;2557334;28;20044;-80
2023/12/13 06:15:56;;;;;;;2.55;0.85;;;9.10;93.10;;;;;;2556648;28;20040;-80
2023/12/13 06:17:10;;;;;;;4.30;1.35;;;9.10;93.10;;;;;;2557199;28;20067;-81
2023/12/13 06:18:24;;;;;;;2.70;1.08;;;9.20;93.20;;;;;;2560847;28;20058;-80
2023/12/13 06:19:38;;;;;;;2.78;1.23;;;9.20;93.10;;;;;;2562351;28;20047;-80
2023/12/13 06:20:53;;;;;;;2.83;1.05;;;9.20;93.10;;;;;;2565134;28;20047;-81
2023/12/13 06:22:07;;;;;;;5.30;0.73;;;9.20;93.00;;;;;;2565767;28;20416;-80
2023/12/13 06:23:24;;;;;;;2.95;1.33;;;9.30;93.00;;;;;;2557490;28;20041;-81
2023/12/13 06:24:37;;;;;;;0.90;0.80;;;9.30;93.00;;;;;;2562443;28;20096;-80
2023/12/13 06:25:52;;;;;;;2.08;0.70;;;9.30;92.90;;;;;;2558989;28;20048;-80
2023/12/13 06:27:06;;;;;;;3.40;1.25;;;9.30;92.90;;;;;;2563732;28;20048;-81
2023/12/13 06:28:22;;;;;;;1.75;0.90;;;9.30;92.80;;;;;;2555365;28;20048;-80
2023/12/13 06:29:36;;;;;;;0.60;0.50;;;9.30;92.80;;;;;;2555659;28;20063;-81
2023/12/13 06:30:51;;;;;;;1.60;0.73;;;9.30;92.80;;;;;;2555341;28;20048;-80
2023/12/13 06:32:05;;;;;;;1.75;0.90;;;9.30;92.80;;;;;;2553620;28;20040;-81